createdAt,value
2022-12-18T00:00:19.613Z,0
2022-12-18T00:01:19.977Z,0
2022-12-18T00:02:19.468Z,0
2022-12-18T00:03:19.659Z,0
2022-12-18T00:04:22.617Z,0
2022-12-18T00:05:19.571Z,0
2022-12-18T00:06:19.962Z,0
2022-12-18T00:07:19.583Z,0
2022-12-18T00:08:19.625Z,0
2022-12-18T00:09:19.659Z,0
2022-12-18T00:10:19.462Z,0
2022-12-18T00:11:19.905Z,0
2022-12-18T00:12:19.699Z,0
2022-12-18T00:13:19.584Z,0
2022-12-18T00:14:19.539Z,0
2022-12-18T00:15:22.553Z,0
2022-12-18T00:16:19.891Z,0
2022-12-18T00:17:19.615Z,0
2022-12-18T00:18:20.705Z,0
2022-12-18T00:19:19.461Z,0
2022-12-18T00:20:19.957Z,0
2022-12-18T00:21:19.872Z,0
2022-12-18T00:22:19.581Z,0
2022-12-18T00:23:19.460Z,0
2022-12-18T00:24:19.553Z,0
2022-12-18T00:25:19.599Z,0
2022-12-18T00:26:22.570Z,0
2022-12-18T00:27:19.577Z,0
2022-12-18T00:28:19.484Z,0
2022-12-18T00:29:19.465Z,0
2022-12-18T00:30:19.515Z,0
2022-12-18T00:31:19.874Z,0
2022-12-18T00:32:19.568Z,0
2022-12-18T00:33:19.574Z,0
2022-12-18T00:34:19.471Z,0
2022-12-18T00:35:19.832Z,0
2022-12-18T00:36:19.828Z,0
2022-12-18T00:37:20.371Z,0
2022-12-18T00:38:19.463Z,0
2022-12-18T00:39:19.460Z,0
2022-12-18T00:40:19.587Z,0
2022-12-18T00:41:19.838Z,0
2022-12-18T00:42:22.527Z,0
2022-12-18T00:43:19.530Z,0
2022-12-18T00:44:19.584Z,0
2022-12-18T00:45:19.463Z,0
2022-12-18T00:46:19.711Z,0
2022-12-18T00:47:19.628Z,0
2022-12-18T00:48:19.576Z,0
2022-12-18T00:49:19.895Z,0
2022-12-18T00:50:19.898Z,0
2022-12-18T00:51:19.650Z,0
2022-12-18T00:52:19.466Z,0
2022-12-18T00:53:22.628Z,0
2022-12-18T00:54:19.654Z,0
2022-12-18T00:55:19.606Z,0
2022-12-18T00:56:19.645Z,0
2022-12-18T00:57:19.607Z,0
2022-12-18T00:58:19.625Z,0
2022-12-18T00:59:19.507Z,0
2022-12-18T01:00:19.468Z,0
2022-12-18T01:01:19.820Z,0
2022-12-18T01:02:19.651Z,0
2022-12-18T01:03:19.611Z,0
2022-12-18T01:04:22.498Z,0
2022-12-18T01:05:19.837Z,0
2022-12-18T01:06:19.831Z,0
2022-12-18T01:07:19.512Z,0
2022-12-18T01:08:19.549Z,0
2022-12-18T01:09:19.558Z,0
2022-12-18T01:10:19.551Z,0
2022-12-18T01:11:20.071Z,0
2022-12-18T01:12:19.544Z,0
2022-12-18T01:13:19.605Z,0
2022-12-18T01:14:19.560Z,0
2022-12-18T01:15:22.614Z,0
2022-12-18T01:16:19.855Z,0
2022-12-18T01:17:19.566Z,0
2022-12-18T01:18:19.470Z,0
2022-12-18T01:19:19.707Z,0
2022-12-18T01:20:19.995Z,0
2022-12-18T01:21:19.608Z,0
2022-12-18T01:22:19.473Z,0
2022-12-18T01:23:19.577Z,0
2022-12-18T01:24:19.472Z,0
2022-12-18T01:25:19.530Z,0
2022-12-18T01:26:25.667Z,0
2022-12-18T01:27:19.520Z,0
2022-12-18T01:28:19.637Z,0
2022-12-18T01:29:19.559Z,0
2022-12-18T01:30:19.460Z,0
2022-12-18T01:31:19.724Z,0
2022-12-18T01:32:19.529Z,0
2022-12-18T01:33:19.575Z,0
2022-12-18T01:34:19.465Z,0
2022-12-18T01:35:19.899Z,0
2022-12-18T01:36:19.661Z,0
2022-12-18T01:37:19.456Z,0
2022-12-18T01:38:19.590Z,0
2022-12-18T01:39:19.545Z,0
2022-12-18T01:40:19.545Z,0
2022-12-18T01:41:19.898Z,0
2022-12-18T01:42:22.582Z,0
2022-12-18T01:43:19.565Z,0
2022-12-18T01:44:19.480Z,0
2022-12-18T01:45:19.469Z,0
2022-12-18T01:46:19.527Z,0
2022-12-18T01:47:19.533Z,0
2022-12-18T01:48:22.481Z,0
2022-12-18T01:49:19.453Z,0
2022-12-18T01:50:19.951Z,0
2022-12-18T01:51:19.648Z,0
2022-12-18T01:52:19.553Z,0
2022-12-18T01:53:19.554Z,0
2022-12-18T01:54:19.498Z,0
2022-12-18T01:55:19.583Z,0
2022-12-18T01:56:19.895Z,0
2022-12-18T01:57:19.561Z,0
2022-12-18T01:58:19.613Z,0
2022-12-18T01:59:22.487Z,0
2022-12-18T02:00:19.562Z,0
2022-12-18T02:01:19.752Z,0
2022-12-18T02:02:19.698Z,0
2022-12-18T02:03:19.528Z,0
2022-12-18T02:04:19.468Z,0
2022-12-18T02:05:19.828Z,0
2022-12-18T02:06:19.898Z,0
2022-12-18T02:07:19.691Z,0
2022-12-18T02:08:19.544Z,0
2022-12-18T02:09:19.499Z,0
2022-12-18T02:10:22.456Z,0
2022-12-18T02:11:19.530Z,0
2022-12-18T02:12:19.472Z,0
2022-12-18T02:13:19.521Z,0
2022-12-18T02:14:19.602Z,0
2022-12-18T02:15:19.549Z,0
2022-12-18T02:16:19.936Z,0
2022-12-18T02:17:19.591Z,0
2022-12-18T02:18:19.685Z,0
2022-12-18T02:19:19.534Z,0
2022-12-18T02:20:19.896Z,0
2022-12-18T02:21:25.504Z,0
2022-12-18T02:22:19.589Z,0
2022-12-18T02:23:19.619Z,0
2022-12-18T02:24:19.679Z,0
2022-12-18T02:25:19.548Z,0
2022-12-18T02:26:19.899Z,0
2022-12-18T02:27:19.531Z,0
2022-12-18T02:28:19.461Z,0
2022-12-18T02:29:19.463Z,0
2022-12-18T02:30:19.472Z,0
2022-12-18T02:31:20.062Z,0
2022-12-18T02:32:22.451Z,0
2022-12-18T02:33:19.578Z,0
2022-12-18T02:34:19.545Z,0
2022-12-18T02:35:19.900Z,0
2022-12-18T02:36:19.835Z,0
2022-12-18T02:37:19.459Z,0
2022-12-18T02:38:19.588Z,0
2022-12-18T02:39:19.489Z,0
2022-12-18T02:40:19.580Z,0
2022-12-18T02:41:19.838Z,0
2022-12-18T02:42:19.472Z,0
2022-12-18T02:43:22.609Z,0
2022-12-18T02:44:19.678Z,0
2022-12-18T02:45:19.465Z,0
2022-12-18T02:46:19.609Z,0
2022-12-18T02:47:19.629Z,0
2022-12-18T02:48:19.668Z,0
2022-12-18T02:49:19.466Z,0
2022-12-18T02:50:19.827Z,0
2022-12-18T02:51:19.601Z,0
2022-12-18T02:52:19.454Z,0
2022-12-18T02:53:19.525Z,0
2022-12-18T02:54:22.489Z,0
2022-12-18T02:55:19.654Z,0
2022-12-18T02:56:19.910Z,0
2022-12-18T02:57:19.547Z,0
2022-12-18T02:58:19.466Z,0
2022-12-18T02:59:19.529Z,0
2022-12-18T03:00:19.453Z,0
2022-12-18T03:01:20.077Z,0
2022-12-18T03:02:19.810Z,0
2022-12-18T03:03:19.729Z,0
2022-12-18T03:04:19.579Z,0
2022-12-18T03:05:25.504Z,0
2022-12-18T03:06:19.540Z,0
2022-12-18T03:07:19.549Z,0
2022-12-18T03:08:19.602Z,0
2022-12-18T03:09:19.590Z,0
2022-12-18T03:10:19.546Z,0
2022-12-18T03:11:19.465Z,0
2022-12-18T03:12:19.565Z,0
2022-12-18T03:13:19.466Z,0
2022-12-18T03:14:19.464Z,0
2022-12-18T03:15:19.576Z,0
2022-12-18T03:16:25.637Z,0
2022-12-18T03:17:19.667Z,0
2022-12-18T03:18:19.457Z,0
2022-12-18T03:19:19.661Z,0
2022-12-18T03:20:19.837Z,0
2022-12-18T03:21:19.469Z,0
2022-12-18T03:22:19.468Z,0
2022-12-18T03:23:21.479Z,0
2022-12-18T03:24:19.467Z,0
2022-12-18T03:25:19.664Z,0
2022-12-18T03:26:19.846Z,0
2022-12-18T03:27:22.752Z,0
2022-12-18T03:28:19.633Z,0
2022-12-18T03:29:19.651Z,0
2022-12-18T03:30:19.432Z,0
2022-12-18T03:31:19.628Z,0
2022-12-18T03:32:19.554Z,0
2022-12-18T03:33:19.459Z,0
2022-12-18T03:34:19.616Z,0
2022-12-18T03:35:19.828Z,0
2022-12-18T03:36:19.939Z,0
2022-12-18T03:37:19.679Z,0
2022-12-18T03:38:19.463Z,0
2022-12-18T03:39:19.599Z,0
2022-12-18T03:40:19.573Z,0
2022-12-18T03:41:19.831Z,0
2022-12-18T03:42:19.546Z,0
2022-12-18T03:43:22.517Z,0
2022-12-18T03:44:19.679Z,0
2022-12-18T03:45:19.452Z,0
2022-12-18T03:46:19.924Z,0
2022-12-18T03:47:19.692Z,0
2022-12-18T03:48:19.724Z,0
2022-12-18T03:49:19.592Z,0
2022-12-18T03:50:19.904Z,0
2022-12-18T03:51:19.841Z,0
2022-12-18T03:52:19.655Z,0
2022-12-18T03:53:19.591Z,0
2022-12-18T03:54:22.531Z,0
2022-12-18T03:55:19.644Z,0
2022-12-18T03:56:19.841Z,0
2022-12-18T03:57:19.640Z,0
2022-12-18T03:58:19.589Z,0
2022-12-18T03:59:19.554Z,0
2022-12-18T04:00:19.466Z,0
2022-12-18T04:01:19.706Z,0
2022-12-18T04:02:19.622Z,0
2022-12-18T04:03:22.682Z,0
2022-12-18T04:04:19.596Z,0
2022-12-18T04:05:25.591Z,0
2022-12-18T04:06:19.938Z,0
2022-12-18T04:07:19.635Z,0
2022-12-18T04:08:19.543Z,0
2022-12-18T04:09:19.660Z,0
2022-12-18T04:10:19.541Z,0
2022-12-18T04:11:19.840Z,0
2022-12-18T04:12:19.605Z,0
2022-12-18T04:13:19.532Z,0
2022-12-18T04:14:19.589Z,0
2022-12-18T04:15:19.683Z,0
2022-12-18T04:16:25.498Z,0
2022-12-18T04:17:19.641Z,0
2022-12-18T04:18:19.473Z,0
2022-12-18T04:19:19.602Z,0
2022-12-18T04:20:19.837Z,0
2022-12-18T04:21:19.824Z,0
2022-12-18T04:22:19.459Z,0
2022-12-18T04:23:19.595Z,0
2022-12-18T04:24:19.638Z,0
2022-12-18T04:25:19.503Z,0
2022-12-18T04:26:19.904Z,0
2022-12-18T04:27:22.613Z,0
2022-12-18T04:28:19.518Z,0
2022-12-18T04:29:19.542Z,0
2022-12-18T04:30:19.616Z,0
2022-12-18T04:31:19.940Z,0
2022-12-18T04:32:19.631Z,0
2022-12-18T04:33:19.462Z,0
2022-12-18T04:34:19.476Z,0
2022-12-18T04:35:19.902Z,0
2022-12-18T04:36:19.829Z,0
2022-12-18T04:37:19.676Z,0
2022-12-18T04:38:22.621Z,0
2022-12-18T04:39:19.570Z,0
2022-12-18T04:40:19.603Z,0
2022-12-18T04:41:19.827Z,0
2022-12-18T04:42:19.586Z,0
2022-12-18T04:43:19.684Z,0
2022-12-18T04:44:19.571Z,0
2022-12-18T04:45:19.452Z,0
2022-12-18T04:46:19.644Z,0
2022-12-18T04:47:19.707Z,0
2022-12-18T04:48:19.678Z,0
2022-12-18T04:49:22.487Z,0
2022-12-18T04:50:19.834Z,0
2022-12-18T04:51:25.952Z,0
2022-12-18T04:52:19.674Z,0
2022-12-18T04:53:19.547Z,0
2022-12-18T04:54:19.478Z,0
2022-12-18T04:55:19.546Z,0
2022-12-18T04:56:19.903Z,0
2022-12-18T04:57:19.628Z,0
2022-12-18T04:58:19.580Z,0
2022-12-18T04:59:19.653Z,0
2022-12-18T05:00:22.493Z,0
2022-12-18T05:01:19.690Z,0
2022-12-18T05:02:19.675Z,0
2022-12-18T05:03:19.585Z,0
2022-12-18T05:04:19.558Z,0
2022-12-18T05:05:19.909Z,0
2022-12-18T05:06:19.449Z,0
2022-12-18T05:07:19.459Z,0
2022-12-18T05:08:19.454Z,0
2022-12-18T05:09:19.589Z,0
2022-12-18T05:10:19.511Z,0
2022-12-18T05:11:25.877Z,0
2022-12-18T05:12:19.556Z,0
2022-12-18T05:13:19.551Z,0
2022-12-18T05:14:19.559Z,0
2022-12-18T05:15:19.464Z,0
2022-12-18T05:16:19.676Z,0
2022-12-18T05:17:19.496Z,0
2022-12-18T05:18:19.577Z,0
2022-12-18T05:19:19.555Z,0
2022-12-18T05:20:19.904Z,0
2022-12-18T05:21:19.840Z,0
2022-12-18T05:22:22.461Z,0
2022-12-18T05:23:19.567Z,0
2022-12-18T05:24:19.474Z,0
2022-12-18T05:25:19.560Z,0
2022-12-18T05:26:19.831Z,0
2022-12-18T05:27:19.573Z,0
2022-12-18T05:28:19.466Z,0
2022-12-18T05:29:19.463Z,0
2022-12-18T05:30:19.452Z,0
2022-12-18T05:31:19.909Z,0
2022-12-18T05:32:19.625Z,0
2022-12-18T05:33:22.603Z,0
2022-12-18T05:34:19.544Z,0
2022-12-18T05:35:19.901Z,0
2022-12-18T05:36:19.915Z,0
2022-12-18T05:37:19.662Z,0
2022-12-18T05:38:19.546Z,0
2022-12-18T05:39:19.475Z,0
2022-12-18T05:40:19.574Z,0
2022-12-18T05:41:19.517Z,0
2022-12-18T05:42:19.622Z,0
2022-12-18T05:43:21.419Z,0
2022-12-18T05:44:19.607Z,0
2022-12-18T05:45:19.469Z,0
2022-12-18T05:46:19.672Z,100
2022-12-18T05:47:19.530Z,0
2022-12-18T05:48:19.664Z,0
2022-12-18T05:49:22.584Z,0
2022-12-18T05:50:19.832Z,0
2022-12-18T05:51:19.830Z,0
2022-12-18T05:52:19.457Z,0
2022-12-18T05:53:19.462Z,0
2022-12-18T05:54:19.469Z,0
2022-12-18T05:55:19.527Z,0
2022-12-18T05:56:19.568Z,0
2022-12-18T05:57:19.462Z,0
2022-12-18T05:58:19.459Z,0
2022-12-18T05:59:19.606Z,0
2022-12-18T06:00:19.592Z,0
2022-12-18T06:01:19.636Z,0
2022-12-18T06:02:19.670Z,0
2022-12-18T06:03:19.569Z,0
2022-12-18T06:04:19.573Z,0
2022-12-18T06:05:22.614Z,0
2022-12-18T06:06:19.579Z,0
2022-12-18T06:07:19.466Z,0
2022-12-18T06:08:19.455Z,0
2022-12-18T06:09:19.455Z,0
2022-12-18T06:10:19.439Z,0
2022-12-18T06:11:19.517Z,0
2022-12-18T06:12:19.475Z,0
2022-12-18T06:13:19.565Z,0
2022-12-18T06:14:19.572Z,0
2022-12-18T06:15:19.671Z,0
2022-12-18T06:16:19.553Z,0
2022-12-18T06:17:19.597Z,0
2022-12-18T06:18:19.575Z,0
2022-12-18T06:19:19.489Z,0
2022-12-18T06:20:19.621Z,0
2022-12-18T06:21:22.581Z,0
2022-12-18T06:22:19.606Z,100
2022-12-18T06:23:19.525Z,100
2022-12-18T06:24:19.475Z,100
2022-12-18T06:25:19.586Z,100
2022-12-18T06:26:24.655Z,0
2022-12-18T06:27:19.687Z,0
2022-12-18T06:28:19.446Z,0
2022-12-18T06:29:19.485Z,0
2022-12-18T06:30:19.555Z,100
2022-12-18T06:31:19.727Z,100
2022-12-18T06:32:19.495Z,100
2022-12-18T06:33:19.487Z,100
2022-12-18T06:34:19.686Z,100
2022-12-18T06:35:19.592Z,100
2022-12-18T06:36:19.585Z,100
2022-12-18T06:37:22.568Z,100
2022-12-18T06:38:19.688Z,100
2022-12-18T06:39:19.542Z,100
2022-12-18T06:40:19.489Z,100
2022-12-18T06:41:19.440Z,100
2022-12-18T06:42:19.474Z,100
2022-12-18T06:43:19.563Z,100
2022-12-18T06:44:19.475Z,100
2022-12-18T06:45:19.569Z,100
2022-12-18T06:46:19.535Z,100
2022-12-18T06:47:19.565Z,100
2022-12-18T06:48:22.564Z,100
2022-12-18T06:49:19.682Z,100
2022-12-18T06:50:19.642Z,100
2022-12-18T06:51:19.563Z,100
2022-12-18T06:52:19.664Z,100
2022-12-18T06:53:19.537Z,100
2022-12-18T06:54:19.466Z,100
2022-12-18T06:55:19.557Z,100
2022-12-18T06:56:19.466Z,100
2022-12-18T06:57:19.452Z,100
2022-12-18T06:58:19.458Z,100
2022-12-18T06:59:22.616Z,100
2022-12-18T07:00:19.677Z,100
2022-12-18T07:01:19.682Z,100
2022-12-18T07:02:19.763Z,100
2022-12-18T07:03:19.645Z,100
2022-12-18T07:04:19.587Z,100
2022-12-18T07:05:19.824Z,100
2022-12-18T07:06:19.591Z,100
2022-12-18T07:07:19.705Z,100
2022-12-18T07:08:19.533Z,100
2022-12-18T07:09:19.468Z,100
2022-12-18T07:10:19.568Z,0
2022-12-18T07:11:19.830Z,100
2022-12-18T07:12:19.487Z,100
2022-12-18T07:13:19.609Z,100
2022-12-18T07:14:19.516Z,100
2022-12-18T07:15:55.306Z,100
2022-12-18T07:16:24.716Z,100
2022-12-18T07:17:19.450Z,0
2022-12-18T07:18:19.547Z,0
2022-12-18T07:19:19.539Z,0
2022-12-18T07:20:19.892Z,100
2022-12-18T07:21:22.631Z,100
2022-12-18T07:22:19.538Z,0
2022-12-18T07:23:19.579Z,0
2022-12-18T07:24:19.469Z,0
2022-12-18T07:25:19.569Z,0
2022-12-18T07:26:19.666Z,0
2022-12-18T07:27:19.583Z,0
2022-12-18T07:28:19.605Z,0
2022-12-18T07:29:19.571Z,0
2022-12-18T07:30:19.605Z,0
2022-12-18T07:31:19.713Z,0
2022-12-18T07:32:22.616Z,0
2022-12-18T07:33:19.673Z,0
2022-12-18T07:34:19.628Z,0
2022-12-18T07:35:24.783Z,0
2022-12-18T07:36:19.968Z,0
2022-12-18T07:37:19.581Z,100
2022-12-18T07:38:19.553Z,100
2022-12-18T07:39:19.578Z,100
2022-12-18T07:40:19.635Z,100
2022-12-18T07:41:19.905Z,100
2022-12-18T07:42:19.652Z,100
2022-12-18T07:43:22.516Z,100
2022-12-18T07:44:19.650Z,100
2022-12-18T07:45:19.452Z,100
2022-12-18T07:46:19.667Z,100
2022-12-18T07:47:19.651Z,100
2022-12-18T07:48:19.506Z,100
2022-12-18T07:49:19.544Z,100
2022-12-18T07:50:19.597Z,100
2022-12-18T07:51:19.655Z,100
2022-12-18T07:52:25.596Z,100
2022-12-18T07:53:19.569Z,100
2022-12-18T07:54:22.509Z,100
2022-12-18T07:55:19.450Z,100
2022-12-18T07:56:28.090Z,100
2022-12-18T07:57:48.461Z,100
2022-12-18T07:58:19.458Z,100
2022-12-18T07:59:19.680Z,100
2022-12-18T08:00:19.467Z,100
2022-12-18T08:01:19.711Z,100
2022-12-18T08:02:19.730Z,100
2022-12-18T08:03:19.748Z,100
2022-12-18T08:04:19.529Z,100
2022-12-18T08:05:25.606Z,100
2022-12-18T08:06:22.473Z,100
2022-12-18T08:07:19.572Z,100
2022-12-18T08:08:19.707Z,100
2022-12-18T08:09:19.483Z,100
2022-12-18T08:10:19.689Z,100
2022-12-18T08:11:19.910Z,100
2022-12-18T08:12:19.532Z,100
2022-12-18T08:13:19.462Z,100
2022-12-18T08:14:19.631Z,100
2022-12-18T08:15:19.621Z,100
2022-12-18T08:16:20.039Z,100
2022-12-18T08:17:19.472Z,100
2022-12-18T08:18:19.553Z,100
2022-12-18T08:19:19.474Z,100
2022-12-18T08:20:19.896Z,100
2022-12-18T08:21:22.530Z,100
2022-12-18T08:22:19.532Z,100
2022-12-18T08:23:19.572Z,100
2022-12-18T08:24:19.468Z,100
2022-12-18T08:25:19.452Z,100
2022-12-18T08:26:19.502Z,100
2022-12-18T08:27:30.324Z,100
2022-12-18T08:28:19.586Z,100
2022-12-18T08:29:21.699Z,100
2022-12-18T08:30:19.465Z,100
2022-12-18T08:31:19.755Z,100
2022-12-18T08:32:22.543Z,100
2022-12-18T08:33:19.557Z,100
2022-12-18T08:34:19.611Z,100
2022-12-18T08:35:19.834Z,100
2022-12-18T08:36:19.620Z,100
2022-12-18T08:37:19.590Z,100
2022-12-18T08:38:19.568Z,100
2022-12-18T08:39:19.612Z,100
2022-12-18T08:40:19.688Z,100
2022-12-18T08:41:19.843Z,100
2022-12-18T08:42:19.564Z,100
2022-12-18T08:43:22.468Z,100
2022-12-18T08:44:19.570Z,100
2022-12-18T08:45:19.597Z,100
2022-12-18T08:46:19.716Z,100
2022-12-18T08:47:19.447Z,100
2022-12-18T08:48:22.139Z,100
2022-12-18T08:49:19.578Z,99.947265625
2022-12-18T08:50:19.900Z,99.7060546875
2022-12-18T08:51:19.842Z,99.53515625
2022-12-18T08:52:19.557Z,99.5634765625
2022-12-18T08:53:19.493Z,99.9306640625
2022-12-18T08:54:22.551Z,100
2022-12-18T08:55:19.641Z,100
2022-12-18T08:56:19.832Z,100
2022-12-18T08:57:19.570Z,100
2022-12-18T08:58:19.573Z,100
2022-12-18T08:59:20.137Z,100
2022-12-18T09:00:19.567Z,100
2022-12-18T09:01:20.036Z,100
2022-12-18T09:02:19.859Z,100
2022-12-18T09:03:19.493Z,100
2022-12-18T09:04:19.545Z,100
2022-12-18T09:05:22.605Z,100
2022-12-18T09:06:19.571Z,100
2022-12-18T09:07:19.594Z,100
2022-12-18T09:08:19.675Z,100
2022-12-18T09:09:19.456Z,100
2022-12-18T09:10:19.501Z,100
2022-12-18T09:11:19.448Z,100
2022-12-18T09:12:19.494Z,100
2022-12-18T09:13:19.687Z,100
2022-12-18T09:14:19.664Z,100
2022-12-18T09:15:19.488Z,100
2022-12-18T09:16:31.504Z,100
2022-12-18T09:17:19.612Z,100
2022-12-18T09:18:19.553Z,100
2022-12-18T09:19:19.629Z,100
2022-12-18T09:20:19.907Z,100
2022-12-18T09:21:19.831Z,100
2022-12-18T09:22:19.458Z,100
2022-12-18T09:23:19.670Z,99.8837890625
2022-12-18T09:24:19.502Z,99.6162109375
2022-12-18T09:25:19.563Z,98.673828125
2022-12-18T09:26:19.844Z,98.474609375
2022-12-18T09:27:22.546Z,98.29296875
2022-12-18T09:28:19.539Z,98.4423828125
2022-12-18T09:29:19.581Z,98.513671875
2022-12-18T09:30:19.688Z,98.1669921875
2022-12-18T09:31:19.627Z,98.1416015625
2022-12-18T09:32:22.514Z,98.3125
2022-12-18T09:33:19.602Z,98.517578125
2022-12-18T09:34:19.486Z,98.3857421875
2022-12-18T09:35:19.498Z,98.646484375
2022-12-18T09:36:19.912Z,98.541015625
2022-12-18T09:37:19.527Z,98.47265625
2022-12-18T09:38:22.649Z,98.236328125
2022-12-18T09:39:21.856Z,97.478515625
2022-12-18T09:40:19.456Z,96.771484375
2022-12-18T09:41:19.444Z,95.9609375
2022-12-18T09:42:19.612Z,95.6455078125
2022-12-18T09:43:19.701Z,95.4287109375
2022-12-18T09:44:19.722Z,95.275390625
2022-12-18T09:45:19.472Z,94.8828125
2022-12-18T09:46:20.027Z,94.498046875
2022-12-18T09:47:19.650Z,94.0146484375
2022-12-18T09:48:19.459Z,93.5009765625
2022-12-18T09:49:22.498Z,94.748046875
2022-12-18T09:50:19.834Z,95.3349609375
2022-12-18T09:51:19.557Z,94.91796875
2022-12-18T09:52:19.487Z,94.5908203125
2022-12-18T09:53:19.487Z,94.279296875
2022-12-18T09:54:19.459Z,93.2607421875
2022-12-18T09:55:19.514Z,92.779296875
2022-12-18T09:56:19.910Z,92.4248046875
2022-12-18T09:57:19.670Z,92.2978515625
2022-12-18T09:58:19.686Z,92.48046875
2022-12-18T09:59:19.531Z,92.3818359375
2022-12-18T10:00:22.519Z,92.5849609375
2022-12-18T10:01:19.892Z,92.7021484375
2022-12-18T10:02:19.711Z,92.3173828125
2022-12-18T10:03:19.588Z,92.4580078125
2022-12-18T10:04:19.507Z,92.7578125
2022-12-18T10:05:19.912Z,92.5224609375
2022-12-18T10:06:19.834Z,92.4375
2022-12-18T10:07:19.463Z,91.794921875
2022-12-18T10:08:19.600Z,91.728515625
2022-12-18T10:09:19.661Z,91.595703125
2022-12-18T10:10:19.610Z,91.6357421875
2022-12-18T10:11:22.755Z,92.1806640625
2022-12-18T10:12:19.554Z,92.287109375
2022-12-18T10:13:19.477Z,92.18359375
2022-12-18T10:14:19.694Z,91.7314453125
2022-12-18T10:15:19.475Z,91.3095703125
2022-12-18T10:16:19.908Z,91.5439453125
2022-12-18T10:17:19.572Z,91.2861328125
2022-12-18T10:18:22.073Z,91.2451171875
2022-12-18T10:19:19.571Z,91.2333984375
2022-12-18T10:20:19.993Z,91.2744140625
2022-12-18T10:21:19.830Z,91.0205078125
2022-12-18T10:22:22.850Z,90.8701171875
2022-12-18T10:23:19.684Z,91.0849609375
2022-12-18T10:24:19.472Z,91.203125
2022-12-18T10:25:19.628Z,91.2197265625
2022-12-18T10:26:19.830Z,91.185546875
2022-12-18T10:27:19.455Z,91.068359375
2022-12-18T10:28:19.551Z,91.10546875
2022-12-18T10:29:19.471Z,91.4111328125
2022-12-18T10:30:19.596Z,91.841796875
2022-12-18T10:31:19.901Z,91.4775390625
2022-12-18T10:32:19.471Z,91.22265625
2022-12-18T10:33:22.513Z,90.5615234375
2022-12-18T10:34:19.679Z,90.8876953125
2022-12-18T10:35:19.947Z,91.1435546875
2022-12-18T10:36:19.830Z,91.4716796875
2022-12-18T10:37:19.634Z,91.541015625
2022-12-18T10:38:19.569Z,91.4931640625
2022-12-18T10:39:19.609Z,91.1982421875
2022-12-18T10:40:22.651Z,91.0947265625
2022-12-18T10:41:19.908Z,90.4296875
2022-12-18T10:42:19.569Z,89.900390625
2022-12-18T10:43:19.590Z,89.9248046875
2022-12-18T10:44:22.477Z,89.39453125
2022-12-18T10:45:19.551Z,89.3564453125
2022-12-18T10:46:19.602Z,89.3291015625
2022-12-18T10:47:19.574Z,89.4873046875
2022-12-18T10:48:19.582Z,88.7880859375
2022-12-18T10:49:19.457Z,89.4951171875
2022-12-18T10:50:19.712Z,89.7724609375
2022-12-18T10:51:19.893Z,89.880859375
2022-12-18T10:52:19.489Z,89.365234375
2022-12-18T10:53:19.669Z,88.8916015625
2022-12-18T10:54:19.530Z,88.65234375
2022-12-18T10:55:23.293Z,87.935546875
2022-12-18T10:56:19.834Z,87.73828125
2022-12-18T10:57:19.631Z,87.259765625
2022-12-18T10:58:24.957Z,87.140625
2022-12-18T10:59:19.560Z,87.5888671875
2022-12-18T11:00:19.540Z,87.53125
2022-12-18T11:01:19.627Z,87.310546875
2022-12-18T11:02:19.584Z,86.4970703125
2022-12-18T11:03:19.786Z,86.34375
2022-12-18T11:04:19.587Z,87.0068359375
2022-12-18T11:05:19.932Z,87.5849609375
2022-12-18T11:06:25.504Z,87.837890625
2022-12-18T11:07:19.539Z,88.046875
2022-12-18T11:08:19.459Z,87.80078125
2022-12-18T11:09:19.457Z,88.0302734375
2022-12-18T11:10:19.577Z,87.796875
2022-12-18T11:11:19.834Z,88.181640625
2022-12-18T11:12:19.541Z,88.064453125
2022-12-18T11:13:19.572Z,87.9755859375
2022-12-18T11:14:19.584Z,86.9765625
2022-12-18T11:15:19.534Z,86.62109375
2022-12-18T11:16:20.019Z,86.0888671875
2022-12-18T11:17:25.366Z,85.421875
2022-12-18T11:18:19.581Z,84.724609375
2022-12-18T11:19:19.583Z,84.4384765625
2022-12-18T11:20:19.503Z,84.8388671875
2022-12-18T11:21:20.102Z,85.65234375
2022-12-18T11:22:19.535Z,85.8193359375
2022-12-18T11:23:19.564Z,85.6484375
2022-12-18T11:24:19.604Z,86.3095703125
2022-12-18T11:25:35.147Z,86.6572265625
2022-12-18T11:26:19.499Z,86.5869140625
2022-12-18T11:27:19.992Z,86.3505859375
2022-12-18T11:28:22.493Z,85.8984375
2022-12-18T11:29:19.533Z,86.4853515625
2022-12-18T11:30:19.551Z,86.310546875
2022-12-18T11:31:19.941Z,86.4892578125
2022-12-18T11:32:19.529Z,86.5869140625
2022-12-18T11:33:19.493Z,85.9482421875
2022-12-18T11:34:29.115Z,85.611328125
2022-12-18T11:35:19.904Z,85.5224609375
2022-12-18T11:36:19.831Z,85.9208984375
2022-12-18T11:37:19.638Z,85.5966796875
2022-12-18T11:38:19.479Z,85.1845703125
2022-12-18T11:39:22.518Z,85.2705078125
2022-12-18T11:40:19.640Z,84.9931640625
2022-12-18T11:41:19.461Z,84.8115234375
2022-12-18T11:42:19.473Z,85.3388671875
2022-12-18T11:43:19.535Z,85.6005859375
2022-12-18T11:44:19.591Z,85.5390625
2022-12-18T11:45:19.561Z,84.8076171875
2022-12-18T11:46:20.122Z,85.3701171875
2022-12-18T11:47:19.657Z,85.4853515625
2022-12-18T11:48:19.557Z,85.8642578125
2022-12-18T11:49:19.543Z,85.052734375
2022-12-18T11:50:22.949Z,85.470703125
2022-12-18T11:51:19.698Z,85.6494140625
2022-12-18T11:52:19.560Z,85.56640625
2022-12-18T11:53:19.443Z,85.6171875
2022-12-18T11:54:19.482Z,84.96484375
2022-12-18T11:55:19.486Z,84.490234375
2022-12-18T11:56:19.834Z,84.734375
2022-12-18T11:57:19.559Z,85.3466796875
2022-12-18T11:58:19.538Z,86.0322265625
2022-12-18T11:59:19.863Z,86.7578125
2022-12-18T12:00:19.598Z,86.4453125
2022-12-18T12:01:19.668Z,85.8779296875
2022-12-18T12:02:19.796Z,85.7265625
2022-12-18T12:03:19.606Z,86.05078125
2022-12-18T12:04:19.536Z,85.98046875
2022-12-18T12:05:19.895Z,86.1328125
2022-12-18T12:06:25.570Z,86.7578125
2022-12-18T12:07:19.639Z,86.5166015625
2022-12-18T12:08:19.634Z,86.2900390625
2022-12-18T12:09:19.529Z,86.5859375
2022-12-18T12:10:19.554Z,86.6513671875
2022-12-18T12:11:19.580Z,86.720703125
2022-12-18T12:12:19.651Z,86.935546875
2022-12-18T12:13:19.471Z,86.7001953125
2022-12-18T12:14:19.573Z,86.1591796875
2022-12-18T12:15:19.595Z,86.115234375
2022-12-18T12:16:20.061Z,85.650390625
2022-12-18T12:17:19.469Z,85.62109375
2022-12-18T12:18:19.579Z,85.5888671875
2022-12-18T12:19:19.580Z,85.97265625
2022-12-18T12:20:19.615Z,85.98828125
2022-12-18T12:21:19.834Z,86.26953125
2022-12-18T12:22:22.478Z,86.0107421875
2022-12-18T12:23:23.468Z,85.9892578125
2022-12-18T12:24:19.472Z,85.7099609375
2022-12-18T12:25:19.558Z,85.2314453125
2022-12-18T12:26:19.486Z,85.26953125
2022-12-18T12:27:19.602Z,85.5380859375
2022-12-18T12:28:19.589Z,85.193359375
2022-12-18T12:29:21.316Z,85.005859375
2022-12-18T12:30:19.573Z,85.1455078125
2022-12-18T12:31:19.673Z,84.9326171875
2022-12-18T12:32:19.595Z,85.5458984375
2022-12-18T12:33:22.534Z,85.4697265625
2022-12-18T12:34:19.625Z,86.4697265625
2022-12-18T12:35:19.591Z,86.7744140625
2022-12-18T12:36:19.694Z,86.7529296875
2022-12-18T12:37:19.564Z,86.541015625
2022-12-18T12:38:19.451Z,85.8310546875
2022-12-18T12:39:19.569Z,85.71875
2022-12-18T12:40:49.301Z,85.9638671875
2022-12-18T12:41:19.569Z,86.1435546875
2022-12-18T12:42:19.469Z,86.9033203125
2022-12-18T12:43:19.553Z,87.357421875
2022-12-18T12:44:22.908Z,87.3896484375
2022-12-18T12:45:19.585Z,87.828125
2022-12-18T12:46:19.774Z,87.8193359375
2022-12-18T12:47:19.682Z,87.833984375
2022-12-18T12:48:19.563Z,87.22265625
2022-12-18T12:49:19.603Z,87.0654296875
2022-12-18T12:50:19.944Z,88.0517578125
2022-12-18T12:51:19.626Z,88.8125
2022-12-18T12:52:19.515Z,89.1142578125
2022-12-18T12:53:19.604Z,89.251953125
2022-12-18T12:54:19.604Z,89.0556640625
2022-12-18T12:55:22.522Z,89.46875
2022-12-18T12:56:19.564Z,89.76171875
2022-12-18T12:57:19.720Z,89.4345703125
2022-12-18T12:58:19.585Z,89.62109375
2022-12-18T12:59:19.530Z,89.7880859375
2022-12-18T13:00:19.584Z,89.6865234375
2022-12-18T13:01:23.296Z,89.734375
2022-12-18T13:02:19.498Z,90.103515625
2022-12-18T13:03:19.554Z,90.583984375